Terminal Aerodrome Forecast
Issued by NWS

Home | Current Version | Previous Version | Text Only | Print | Product List | Glossary On
Versions: 1 2 3 4 5 6 7 8 9 10 11 12 13 14 15 16 17 18 19 20 21 22 23 24 25 26 27 28 29 30 31
000
FTUS41 KRNK 230535
TAFBCB
TAF
KBCB 230535Z 2306/2406 07006KT P6SM OVC006
      TEMPO 2306/2309 2SM -RA OVC015
     FM230900 08008KT 5SM BR OVC008
     FM231500 08007KT 4SM -RA BR OVC009
     FM231800 07007KT 4SM RA BR OVC012
     FM240000 08008KT 4SM -RA BR OVC008=

USA.gov is the U.S. government's official web portal to all federal, state and local government web resources and services.